Time;durP1;ratioP1;P1;durP2;ratioP2;P2;SDS_P1;SDS_P2;PMS_P1;PMS_P2;Temp;Humidity;BMP_temperature;BMP_pressure;BME280_temperature;BME280_humidity;BME280_pressure;Samples;Min_cycle;Max_cycle;Signal;HPM_P1;HPM_P2
2023/03/13 05:15:43;;;;;;;10.50;6.30;;;;;;;3.55;78.44;100509.16;5560245;32;180410;-84
2023/03/13 05:18:47;;;;;;;14.93;6.95;;;;;;;3.56;77.12;100516.13;5546697;32;34753;-84
2023/03/13 05:21:50;;;;;;;10.98;7.10;;;;;;;3.62;77.32;100515.16;5550351;32;34070;-83
2023/03/13 05:24:54;;;;;;;13.95;8.20;;;;;;;3.62;79.54;100509.91;5552777;32;34134;-84
2023/03/13 05:27:57;;;;;;;14.40;8.90;;;;;;;3.59;81.67;100517.81;5549102;32;33902;-84
2023/03/13 05:31:01;;;;;;;13.50;8.65;;;;;;;3.58;82.04;100516.94;5545124;32;34398;-84
2023/03/13 05:34:05;;;;;;;13.88;8.13;;;;;;;3.55;82.59;100514.38;5544680;32;34592;-84
2023/03/13 05:37:08;;;;;;;15.77;8.95;;;;;;;3.54;82.38;100523.16;5548161;32;32740;-84
2023/03/13 05:40:12;;;;;;;13.13;8.13;;;;;;;3.55;82.06;100531.87;5549575;32;34276;-84
2023/03/13 05:43:15;;;;;;;13.75;8.05;;;;;;;3.48;81.68;100531.13;5549631;32;34685;-83
2023/03/13 05:46:18;;;;;;;15.40;9.27;;;;;;;3.57;81.51;100525.72;5549493;32;34952;-84
2023/03/13 05:49:22;;;;;;;14.90;8.40;;;;;;;3.60;82.07;100535.28;5544049;32;33649;-84
2023/03/13 05:52:25;;;;;;;16.83;9.43;;;;;;;3.54;82.20;100536.28;5547195;32;34368;-88
2023/03/13 05:55:28;;;;;;;14.30;8.80;;;;;;;3.60;82.22;100533.53;5550741;32;34261;-88
2023/03/13 05:58:33;;;;;;;17.98;9.27;;;;;;;3.65;82.50;100541.31;5554267;32;34470;-86
2023/03/13 06:01:38;;;;;;;13.90;9.27;;;;;;;3.65;82.82;100528.19;5553015;32;33544;-85
2023/03/13 06:04:42;;;;;;;14.55;9.18;;;;;;;3.62;83.88;100531.75;5551607;32;34920;-85
2023/03/13 06:07:45;;;;;;;14.98;9.50;;;;;;;3.72;83.52;100527.19;5545846;32;33918;-84
2023/03/13 06:10:48;;;;;;;19.20;9.40;;;;;;;3.71;84.57;100535.06;5545605;32;33973;-82
2023/03/13 06:13:52;;;;;;;15.50;9.88;;;;;;;3.78;83.65;100528.84;5546849;32;35160;-84
2023/03/13 06:16:56;;;;;;;14.02;9.85;;;;;;;3.85;83.59;100519.97;5546813;32;33716;-84
2023/03/13 06:19:59;;;;;;;15.00;9.20;;;;;;;3.96;82.52;100522.34;5546178;32;34196;-84
2023/03/13 06:23:02;;;;;;;15.10;9.48;;;;;;;4.13;80.27;100521.16;5545643;32;35022;-84
2023/03/13 06:26:05;;;;;;;16.35;9.20;;;;;;;4.36;78.64;100519.78;5537137;32;34055;-84
2023/03/13 06:29:08;;;;;;;15.30;8.95;;;;;;;4.68;77.18;100520.88;5537438;32;34042;-82
2023/03/13 06:32:10;;;;;;;13.80;9.32;;;;;;;4.95;75.18;100524.63;5534711;32;33777;-84
2023/03/13 06:35:13;;;;;;;20.50;9.20;;;;;;;5.34;73.60;100528.06;5530787;32;33996;-83
2023/03/13 06:38:16;;;;;;;15.85;9.30;;;;;;;5.29;72.93;100524.66;5538623;32;34090;-83
2023/03/13 06:41:19;;;;;;;14.23;9.15;;;;;;;5.22;73.93;100532.72;5537564;32;33870;-83
2023/03/13 06:44:22;;;;;;;14.95;9.70;;;;;;;5.53;71.97;100528.41;5533286;32;35833;-83
2023/03/13 06:47:25;;;;;;;14.93;9.68;;;;;;;5.61;70.70;100533.50;5531975;32;34022;-83
2023/03/13 06:50:27;;;;;;;15.20;10.10;;;;;;;5.69;70.70;100536.81;5531925;32;34750;-84
2023/03/13 06:53:31;;;;;;;17.58;10.10;;;;;;;5.42;71.50;100533.97;5528907;32;34898;-83
2023/03/13 06:56:33;;;;;;;16.12;10.50;;;;;;;5.21;73.27;100531.00;5515924;32;33849;-84
2023/03/13 06:59:38;;;;;;;17.95;9.85;;;;;;;5.22;73.18;100531.84;5522826;32;34429;-84
2023/03/13 07:02:40;;;;;;;14.45;9.25;;;;;;;5.27;72.32;100527.34;5521274;32;34047;-84
2023/03/13 07:05:43;;;;;;;14.70;9.32;;;;;;;5.22;72.72;100523.94;5529805;32;34670;-85
2023/03/13 07:08:48;;;;;;;14.65;9.57;;;;;;;5.51;72.00;100530.25;5531675;32;34704;-85
2023/03/13 07:11:51;;;;;;;17.35;9.50;;;;;;;6.35;66.77;100533.25;5527772;32;34647;-83
2023/03/13 07:14:54;;;;;;;14.15;8.80;;;;;;;6.38;67.11;100538.41;5530527;32;34232;-84
2023/03/13 07:17:57;;;;;;;14.48;9.52;;;;;;;6.24;66.83;100530.06;5532389;32;32630;-84
2023/03/13 07:21:05;;;;;;;17.12;9.80;;;;;;;6.16;66.49;100525.88;5521999;32;33361;-84
2023/03/13 07:24:11;;;;;;;12.57;9.20;;;;;;;7.38;62.08;100522.97;5517533;32;33787;-84
2023/03/13 07:27:16;;;;;;;15.93;9.38;;;;;;;8.55;57.25;100517.94;5516284;32;34528;-84
2023/03/13 07:30:19;;;;;;;15.00;8.80;;;;;;;8.39;55.69;100510.56;5534291;32;33826;-84
2023/03/13 07:33:22;;;;;;;14.60;9.13;;;;;;;9.34;52.38;100505.97;5534598;32;33968;-84
2023/03/13 07:36:25;;;;;;;15.10;8.82;;;;;;;10.00;51.23;100511.94;5520266;32;34727;-85
2023/03/13 07:39:28;;;;;;;12.77;8.23;;;;;;;11.45;46.94;100511.25;5526544;32;34922;-84
2023/03/13 07:42:31;;;;;;;12.85;8.38;;;;;;;11.98;44.46;100498.72;5525942;32;33886;-85
2023/03/13 07:45:34;;;;;;;17.27;9.02;;;;;;;12.44;42.53;100502.53;5521402;32;34341;-84
2023/03/13 07:48:39;;;;;;;14.32;7.93;;;;;;;12.93;41.66;100506.84;5514041;32;33889;-86
2023/03/13 07:51:42;;;;;;;13.50;8.13;;;;;;;14.19;38.78;100497.69;5523373;32;34508;-85
2023/03/13 07:54:46;;;;;;;12.27;7.90;;;;;;;15.69;35.51;100491.47;5525351;32;33665;-84
2023/03/13 07:57:49;;;;;;;14.48;8.35;;;;;;;16.03;34.39;100486.44;5520370;32;34099;-83
2023/03/13 08:00:53;;;;;;;12.27;7.95;;;;;;;18.07;31.57;100484.75;5524189;32;33744;-86
2023/03/13 08:03:57;;;;;;;8.70;7.12;;;;;;;20.82;26.27;100489.41;5520028;32;33994;-90
2023/03/13 08:07:00;;;;;;;12.25;7.55;;;;;;;20.78;26.46;100480.75;5517489;32;33892;-92
2023/03/13 08:10:03;;;;;;;9.38;7.68;;;;;;;21.56;25.09;100470.06;5516635;32;34087;-89
2023/03/13 08:13:06;;;;;;;13.35;7.87;;;;;;;21.31;24.68;100470.50;5524051;32;34953;-84
2023/03/13 08:16:11;;;;;;;12.50;7.57;;;;;;;20.66;25.38;100465.69;5536525;32;33802;-85
2023/03/13 08:19:14;;;;;;;9.82;7.72;;;;;;;22.88;23.11;100466.25;5532300;32;34678;-84
2023/03/13 08:22:17;;;;;;;9.95;8.27;;;;;;;20.40;25.42;100447.34;5522338;32;33825;-84
2023/03/13 08:25:20;;;;;;;12.18;7.80;;;;;;;21.52;24.06;100461.41;5533379;32;33708;-86
2023/03/13 08:28:23;;;;;;;9.05;7.37;;;;;;;23.50;22.65;100453.75;5517131;32;34992;-85
2023/03/13 08:31:29;;;;;;;9.55;7.10;;;;;;;25.03;20.69;100448.50;5525025;32;33353;-85
2023/03/13 08:34:35;;;;;;;9.90;7.25;;;;;;;25.86;19.42;100448.38;5515589;32;35140;-85
2023/03/13 08:37:38;;;;;;;9.35;7.50;;;;;;;24.71;20.36;100445.59;5515006;32;33557;-85
2023/03/13 08:40:42;;;;;;;10.43;7.18;;;;;;;21.21;23.68;100443.56;5522136;32;33833;-85
2023/03/13 08:43:45;;;;;;;9.40;7.07;;;;;;;23.12;21.90;100440.44;5515975;32;34466;-85
2023/03/13 08:46:48;;;;;;;10.68;7.62;;;;;;;22.46;22.19;100448.75;5514542;32;34247;-85
2023/03/13 08:49:51;;;;;;;10.27;8.30;;;;;;;19.98;24.73;100434.91;5525669;32;34101;-85
2023/03/13 08:52:54;;;;;;;9.70;8.02;;;;;;;18.51;26.62;100435.59;5534402;32;34342;-84
2023/03/13 08:55:57;;;;;;;10.55;8.35;;;;;;;17.21;28.35;100428.78;5526809;32;34041;-84
2023/03/13 08:59:02;;;;;;;11.32;8.68;;;;;;;15.43;31.56;100416.63;5533306;32;34173;-84
2023/03/13 09:02:04;;;;;;;15.18;9.13;;;;;;;14.96;32.66;100414.44;5533398;32;34064;-84
2023/03/13 09:05:08;;;;;;;13.25;8.90;;;;;;;13.70;34.47;100425.12;5531252;32;33988;-84
2023/03/13 09:08:11;;;;;;;12.27;8.60;;;;;;;13.58;36.17;100418.78;5533250;32;33823;-84
2023/03/13 09:11:16;;;;;;;13.98;9.40;;;;;;;13.87;35.61;100419.59;5534620;32;35139;-83
2023/03/13 09:14:19;;;;;;;12.32;8.23;;;;;;;12.50;37.42;100409.06;5532860;32;33706;-83
2023/03/13 09:17:22;;;;;;;11.63;8.50;;;;;;;12.92;36.79;100419.06;5520845;32;33907;-84
2023/03/13 09:20:25;;;;;;;17.55;8.75;;;;;;;12.27;37.70;100408.56;5532544;32;34234;-83
2023/03/13 09:23:28;;;;;;;15.20;9.57;;;;;;;12.15;38.00;100401.25;5535256;32;33789;-83
2023/03/13 09:26:30;;;;;;;13.68;8.90;;;;;;;12.24;38.22;100402.56;5531233;32;33587;-83
2023/03/13 09:29:38;;;;;;;13.35;9.25;;;;;;;11.67;39.20;100396.72;5533646;32;34444;-83
2023/03/13 09:32:41;;;;;;;12.52;9.07;;;;;;;11.10;40.44;100392.63;5533934;32;34934;-83
2023/03/13 09:35:49;;;;;;;13.32;9.20;;;;;;;11.46;39.84;100390.75;5534423;32;34267;-84
2023/03/13 09:38:54;;;;;;;13.93;9.15;;;;;;;11.93;39.22;100377.66;5536251;32;34787;-83
2023/03/13 09:42:03;;;;;;;14.60;8.88;;;;;;;12.33;38.44;100390.53;5534010;32;33898;-83
2023/03/13 09:45:16;;;;;;;10.88;8.00;;;;;;;12.66;37.65;100378.88;5535541;32;35203;-83
2023/03/13 09:48:30;;;;;;;15.03;8.80;;;;;;;12.71;37.49;100381.31;5538497;32;34286;-84
2023/03/13 09:51:42;;;;;;;13.98;8.52;;;;;;;12.85;36.71;100377.81;5541169;32;35577;-86
2023/03/13 09:54:51;;;;;;;14.73;8.52;;;;;;;12.35;37.69;100370.03;5540786;32;35266;-89
2023/03/13 09:57:54;;;;;;;11.90;8.15;;;;;;;12.91;37.17;100369.44;5541552;32;34903;-84
2023/03/13 10:01:01;;;;;;;14.80;9.13;;;;;;;13.64;36.20;100372.19;5543344;32;34406;-85
2023/03/13 10:04:28;;;;;;;15.50;9.07;;;;;;;14.11;35.50;100379.00;5541849;32;34282;-85
2023/03/13 10:07:30;;;;;;;12.82;8.88;;;;;;;13.69;36.25;100362.94;5534810;32;33459;-84
2023/03/13 10:10:47;;;;;;;17.55;8.50;;;;;;;13.78;36.47;100352.69;5537095;32;34381;-85
2023/03/13 10:14:11;;;;;;;13.57;8.73;;;;;;;13.85;36.51;100346.00;5532132;32;33742;-85
2023/03/13 10:17:35;;;;;;;15.25;8.73;;;;;;;14.07;35.59;100339.28;5536066;32;33927;-85
2023/03/13 10:20:39;;;;;;;16.17;8.40;;;;;;;14.76;34.72;100341.00;5537138;32;34538;-85
2023/03/13 10:23:50;;;;;;;16.70;8.18;;;;;;;15.12;34.74;100347.44;5531352;32;33720;-85
2023/03/13 10:26:55;;;;;;;14.55;8.60;;;;;;;14.21;36.00;100339.22;5534691;32;33853;-85
2023/03/13 10:29:58;;;;;;;16.12;8.25;;;;;;;14.10;35.72;100339.06;5535041;32;35050;-85
2023/03/13 10:33:07;;;;;;;13.70;8.43;;;;;;;14.31;36.29;100343.94;5537643;32;32988;-85
2023/03/13 10:36:12;;;;;;;11.10;7.60;;;;;;;14.43;35.88;100332.44;5533225;32;34229;-86
2023/03/13 10:39:18;;;;;;;12.02;8.40;;;;;;;14.39;35.86;100330.97;5531382;32;34494;-86
2023/03/13 10:42:33;;;;;;;12.07;7.87;;;;;;;14.50;35.37;100323.09;5534721;32;34075;-86
2023/03/13 10:45:36;;;;;;;11.82;7.93;;;;;;;15.51;34.25;100331.38;5552710;32;33972;-87
2023/03/13 10:48:40;;;;;;;11.57;6.90;;;;;;;17.59;30.69;100332.88;5554502;32;34140;-87
2023/03/13 10:51:53;;;;;;;13.90;7.95;;;;;;;17.15;30.78;100324.75;5552373;32;34467;-87
2023/03/13 10:55:03;;;;;;;12.73;7.57;;;;;;;15.30;33.53;100315.94;5550589;32;33943;-87
2023/03/13 10:58:21;;;;;;;14.90;8.38;;;;;;;15.59;33.61;100307.63;5555716;32;34236;-87
2023/03/13 11:01:41;;;;;;;13.40;8.25;;;;;;;15.84;32.99;100303.16;5559620;32;35921;-87
2023/03/13 11:04:48;;;;;;;12.98;7.20;;;;;;;14.63;34.92;100295.59;5548013;32;33501;-85
2023/03/13 11:07:52;;;;;;;11.95;8.20;;;;;;;14.76;35.00;100291.13;5540206;32;34406;-84
2023/03/13 11:11:03;;;;;;;16.25;7.90;;;;;;;15.28;34.49;100283.09;5535704;32;35415;-85
2023/03/13 11:14:08;;;;;;;18.27;9.02;;;;;;;16.23;32.69;100264.69;5541073;32;33793;-85
2023/03/13 11:17:31;;;;;;;15.38;8.70;;;;;;;17.87;29.59;100280.56;5547537;32;34599;-84
2023/03/13 11:20:37;;;;;;;14.13;7.93;;;;;;;19.45;27.84;100281.59;5536091;32;33786;-84
2023/03/13 11:23:44;;;;;;;12.30;8.02;;;;;;;17.84;29.24;100282.59;5535675;32;34239;-84
2023/03/13 11:26:58;;;;;;;12.90;8.25;;;;;;;16.62;31.42;100275.16;5536402;32;34321;-85
2023/03/13 11:30:07;;;;;;;19.42;8.40;;;;;;;15.29;33.64;100271.44;5537834;32;33859;-84
2023/03/13 11:33:16;;;;;;;15.15;8.13;;;;;;;14.91;34.75;100254.50;5534239;32;34368;-86
2023/03/13 11:36:37;;;;;;;16.80;8.23;;;;;;;14.86;35.35;100247.75;5535635;32;33745;-87
2023/03/13 11:40:05;;;;;;;13.43;8.82;;;;;;;15.11;34.87;100244.22;5534182;32;34117;-83
2023/03/13 11:43:22;;;;;;;11.77;7.68;;;;;;;17.60;31.24;100232.69;5535285;32;34151;-84
2023/03/13 11:46:42;;;;;;;11.98;8.48;;;;;;;18.14;30.39;100240.81;5535844;32;34229;-85
2023/03/13 11:49:51;;;;;;;13.77;8.55;;;;;;;16.67;31.82;100222.97;5545375;32;34219;-85
2023/03/13 11:53:21;;;;;;;13.05;8.18;;;;;;;15.93;33.51;100228.59;5533484;32;34193;-87
2023/03/13 11:56:51;;;;;;;13.00;8.30;;;;;;;15.38;33.93;100226.31;5551100;32;34050;-85
2023/03/13 12:00:06;;;;;;;14.93;8.13;;;;;;;15.25;34.67;100208.50;5541957;32;34614;-84
2023/03/13 12:03:25;;;;;;;13.27;7.82;;;;;;;14.99;35.40;100199.69;5543478;32;33908;-90
2023/03/13 12:06:48;;;;;;;15.45;8.13;;;;;;;15.11;35.17;100197.94;5542132;32;34401;-85
2023/03/13 12:10:10;;;;;;;12.40;8.40;;;;;;;15.06;35.21;100185.78;5536377;32;35052;-85
2023/03/13 12:13:27;;;;;;;9.80;7.72;;;;;;;14.72;35.92;100185.47;5533777;32;34874;-85
2023/03/13 12:16:40;;;;;;;13.32;7.53;;;;;;;14.46;36.50;100180.16;5538913;32;33766;-84
2023/03/13 12:19:56;;;;;;;13.30;7.93;;;;;;;14.39;36.82;100173.53;5534985;32;33903;-84
2023/03/13 12:23:19;;;;;;;10.52;7.22;;;;;;;14.78;36.18;100161.03;5539879;32;33868;-85
2023/03/13 12:26:37;;;;;;;16.30;7.57;;;;;;;15.21;35.58;100154.44;5535600;32;34871;-84
2023/03/13 12:29:52;;;;;;;10.02;7.57;;;;;;;15.65;35.48;100158.41;5546264;32;35316;-85
2023/03/13 12:33:29;;;;;;;9.80;7.37;;;;;;;15.40;35.81;100161.09;5543694;32;34069;-85
2023/03/13 12:36:43;;;;;;;10.15;6.97;;;;;;;15.34;35.35;100141.00;5553003;32;34115;-85
2023/03/13 12:40:24;;;;;;;12.57;7.68;;;;;;;15.29;35.50;100137.81;5540375;32;34331;-86
2023/03/13 12:43:31;;;;;;;14.48;7.30;;;;;;;15.44;35.04;100137.69;5531647;32;33984;-86
2023/03/13 12:46:45;;;;;;;14.20;7.10;;;;;;;15.38;35.82;100130.94;5546513;32;33766;-86
2023/03/13 12:50:12;;;;;;;12.32;7.35;;;;;;;15.60;35.25;100119.50;5550342;32;34651;-85
2023/03/13 12:53:37;;;;;;;9.65;6.57;;;;;;;15.03;36.00;100099.69;5534818;32;34627;-85
2023/03/13 12:57:03;;;;;;;12.23;6.75;;;;;;;14.88;36.49;100089.13;5534517;32;34334;-84
2023/03/13 13:00:21;;;;;;;7.95;5.65;;;;;;;14.91;36.46;100074.69;5547132;32;35451;-86
2023/03/13 13:03:35;;;;;;;10.23;6.55;;;;;;;15.09;36.22;100067.19;5554221;32;34200;-84
2023/03/13 13:07:05;;;;;;;11.88;6.78;;;;;;;15.03;36.65;100070.31;5560617;32;33865;-85
2023/03/13 13:10:08;;;;;;;8.95;5.18;;;;;;;14.96;36.74;100064.53;5556443;32;34437;-85
2023/03/13 13:13:13;;;;;;;11.05;5.03;;;;;;;15.26;36.45;100068.59;5537604;32;33580;-86
2023/03/13 13:16:20;;;;;;;5.10;4.57;;;;;;;14.98;36.49;100078.63;5535785;32;34158;-85
2023/03/13 13:19:23;;;;;;;13.62;5.97;;;;;;;15.01;36.81;100083.75;5546207;32;34020;-86
2023/03/13 13:22:35;;;;;;;13.43;6.55;;;;;;;14.97;36.89;100087.59;5541816;32;33664;-85
2023/03/13 13:25:39;;;;;;;9.25;5.90;;;;;;;14.81;37.28;100080.72;5550613;32;34429;-84
2023/03/13 13:28:42;;;;;;;11.80;6.37;;;;;;;14.71;37.83;100068.97;5537220;32;32993;-84
2023/03/13 13:31:55;;;;;;;14.07;6.05;;;;;;;14.58;37.93;100073.50;5540837;32;33948;-84
2023/03/13 13:35:05;;;;;;;15.02;6.10;;;;;;;14.65;37.95;100062.28;5533121;32;34795;-84
2023/03/13 13:38:17;;;;;;;9.80;5.40;;;;;;;14.60;38.76;100047.53;5535712;32;33800;-84
2023/03/13 13:41:22;;;;;;;9.25;5.10;;;;;;;14.95;38.10;100047.66;5539738;32;34579;-85
2023/03/13 13:44:28;;;;;;;11.07;4.65;;;;;;;14.69;38.71;100041.53;5558558;32;34268;-84
2023/03/13 13:47:31;;;;;;;14.75;4.97;;;;;;;14.76;38.85;100031.28;5545762;32;34190;-84
2023/03/13 13:50:36;;;;;;;6.68;4.53;;;;;;;14.73;39.13;100026.97;5553101;32;34299;-85
2023/03/13 13:53:45;;;;;;;7.12;4.55;;;;;;;14.75;39.12;100025.09;5557933;32;34171;-84
2023/03/13 13:56:57;;;;;;;10.05;4.55;;;;;;;14.67;39.11;100022.09;5554801;32;35239;-89
2023/03/13 14:00:14;;;;;;;5.80;3.90;;;;;;;14.64;39.65;100009.81;5553578;32;32797;-84
2023/03/13 14:03:21;;;;;;;11.02;4.10;;;;;;;14.84;39.28;100010.22;5557378;32;34182;-83
2023/03/13 14:06:29;;;;;;;7.50;4.43;;;;;;;15.08;38.80;99996.84;5557974;32;33930;-83
2023/03/13 14:09:48;;;;;;;11.25;4.30;;;;;;;14.97;38.86;99996.81;5557637;32;34007;-83
2023/03/13 14:12:57;;;;;;;8.77;3.97;;;;;;;14.89;39.44;100001.88;5539938;32;34164;-84
2023/03/13 14:16:23;;;;;;;8.00;3.78;;;;;;;14.85;38.94;100017.28;5515150;32;35227;-84
2023/03/13 14:19:42;;;;;;;7.25;3.92;;;;;;;14.67;39.67;100008.75;5534694;32;34869;-83
2023/03/13 14:22:46;;;;;;;9.45;4.18;;;;;;;14.73;39.55;100010.97;5537865;32;33402;-84
2023/03/13 14:25:50;;;;;;;19.08;4.28;;;;;;;14.88;39.79;100017.03;5534698;32;34331;-83
2023/03/13 14:29:01;;;;;;;13.90;4.32;;;;;;;14.93;39.04;100011.34;5542607;32;34042;-83
2023/03/13 14:32:06;;;;;;;10.30;3.97;;;;;;;14.67;39.58;100012.28;5553666;32;34620;-83
2023/03/13 14:35:12;;;;;;;10.32;3.80;;;;;;;14.68;39.91;99999.75;5553520;32;34547;-83
2023/03/13 14:38:25;;;;;;;6.90;3.20;;;;;;;14.66;40.02;100005.25;5553254;32;34045;-83
2023/03/13 14:41:43;;;;;;;12.95;3.50;;;;;;;14.60;40.61;99999.47;5553533;32;33703;-83
2023/03/13 14:44:48;;;;;;;9.00;3.10;;;;;;;14.62;40.78;100001.06;5553558;32;34677;-84
2023/03/13 14:47:53;;;;;;;9.32;3.00;;;;;;;14.49;41.10;100000.28;5553588;32;34059;-84
2023/03/13 14:51:10;;;;;;;5.78;3.00;;;;;;;14.44;41.53;99997.06;5554432;32;33875;-83
2023/03/13 14:54:48;;;;;;;9.40;3.05;;;;;;;14.28;42.06;100000.84;5555395;32;34698;-83
2023/03/13 14:58:01;;;;;;;3.83;2.78;;;;;;;14.39;41.97;100011.59;5554800;32;32992;-83
2023/03/13 15:01:26;;;;;;;8.25;3.08;;;;;;;14.30;42.23;100001.59;5555323;32;34448;-83
2023/03/13 15:04:51;;;;;;;4.43;2.87;;;;;;;14.27;42.46;99989.31;5555573;32;34670;-83
2023/03/13 15:07:54;;;;;;;5.97;2.80;;;;;;;14.23;42.78;99990.50;5553980;32;35329;-84
2023/03/13 15:10:58;;;;;;;7.47;3.28;;;;;;;14.25;42.88;99985.94;5553535;32;33886;-84
2023/03/13 15:14:02;;;;;;;7.95;2.60;;;;;;;14.23;43.05;99982.50;5566411;32;34058;-84
2023/03/13 15:17:20;;;;;;;8.18;3.53;;;;;;;14.31;43.11;99976.63;5575457;32;34802;-84
2023/03/13 15:20:23;;;;;;;5.72;2.97;;;;;;;14.48;42.96;99964.72;5584282;32;33837;-87
2023/03/13 15:23:27;;;;;;;4.18;2.78;;;;;;;14.38;43.34;99961.88;5577118;32;35130;-89
2023/03/13 15:26:30;;;;;;;4.12;2.80;;;;;;;14.45;43.47;99954.28;5576966;32;34490;-88
2023/03/13 15:29:32;;;;;;;7.30;3.15;;;;;;;14.53;43.40;99953.69;5583521;32;33934;-91
2023/03/13 15:32:37;;;;;;;5.70;3.00;;;;;;;14.58;43.26;99948.88;5571336;32;35117;-85
2023/03/13 15:35:41;;;;;;;6.18;2.70;;;;;;;14.57;43.08;99941.00;5569989;32;33827;-84
2023/03/13 15:38:44;;;;;;;5.40;2.85;;;;;;;14.39;43.50;99946.72;5569054;32;33889;-84
2023/03/13 15:41:47;;;;;;;8.70;2.83;;;;;;;14.36;43.72;99944.25;5570975;32;34140;-84
2023/03/13 15:44:50;;;;;;;5.75;2.67;;;;;;;14.23;44.04;99945.16;5569446;32;34772;-84
2023/03/13 15:47:53;;;;;;;6.97;2.78;;;;;;;14.09;44.27;99924.78;5569512;32;33835;-84
2023/03/13 15:51:01;;;;;;;7.15;2.42;;;;;;;13.99;44.81;99929.09;5570946;32;34114;-84
2023/03/13 15:54:04;;;;;;;4.70;2.80;;;;;;;13.99;44.75;99919.28;5571396;32;33876;-84
2023/03/13 15:57:10;;;;;;;6.78;2.47;;;;;;;13.85;44.86;99925.63;5577828;32;34131;-84
2023/03/13 16:00:23;;;;;;;10.43;2.60;;;;;;;13.72;44.98;99932.75;5571494;32;35073;-84
2023/03/13 16:03:27;;;;;;;4.87;2.50;;;;;;;13.61;45.67;99925.50;5571052;32;34263;-83
2023/03/13 16:06:31;;;;;;;6.55;2.30;;;;;;;13.59;45.29;99930.09;5570966;32;34106;-84
2023/03/13 16:09:34;;;;;;;5.37;2.58;;;;;;;13.54;45.45;99926.91;5570171;32;34132;-83
2023/03/13 16:12:36;;;;;;;5.75;2.45;;;;;;;13.51;45.62;99930.63;5576421;32;34043;-84
2023/03/13 16:15:39;;;;;;;3.45;2.70;;;;;;;13.47;45.89;99918.47;5572381;32;33811;-84
2023/03/13 16:18:42;;;;;;;6.12;2.45;;;;;;;13.39;46.30;99918.13;5571052;32;35326;-83
2023/03/13 16:21:47;;;;;;;5.40;2.53;;;;;;;13.34;46.69;99940.59;5570909;32;33863;-83
2023/03/13 16:24:49;;;;;;;2.47;2.28;;;;;;;13.34;47.04;99921.94;5571612;32;34446;-84
2023/03/13 16:27:54;;;;;;;3.55;2.45;;;;;;;13.35;47.16;99914.81;5571470;32;33853;-83
2023/03/13 16:30:57;;;;;;;7.82;2.35;;;;;;;13.18;47.66;99922.16;5571326;32;33979;-83
2023/03/13 16:34:01;;;;;;;6.22;2.53;;;;;;;13.17;47.94;99922.25;5576449;32;34172;-83
2023/03/13 16:37:11;;;;;;;2.58;2.37;;;;;;;13.10;48.46;99921.81;5575658;32;34011;-83
